Time;durP1;ratioP1;P1;durP2;ratioP2;P2;SDS_P1;SDS_P2;PMS_P1;PMS_P2;Temp;Humidity;BMP_temperature;BMP_pressure;BME280_temperature;BME280_humidity;BME280_pressure;Samples;Min_cycle;Max_cycle;Signal;HPM_P1;HPM_P2
2022/12/12 00:01:50;;;;;;;42.98;22.67;;;;;;;-2.07;87.39;97689.63;1761496;81;20967;-43
2022/12/12 00:04:15;;;;;;;43.68;22.55;;;;;;;-2.07;87.59;97686.17;1761242;81;21015;-41
2022/12/12 00:06:41;;;;;;;34.55;19.40;;;;;;;-2.10;87.65;97681.98;1761533;81;20960;-43
2022/12/12 00:09:08;;;;;;;45.65;21.65;;;;;;;-2.09;87.80;97690.12;1761528;81;21428;-41
2022/12/12 00:11:34;;;;;;;37.63;21.37;;;;;;;-2.03;88.02;97692.95;1761764;81;20990;-43
2022/12/12 00:14:00;;;;;;;44.73;25.70;;;;;;;-1.99;87.94;97686.35;1761456;81;20960;-42
2022/12/12 00:16:26;;;;;;;43.10;23.22;;;;;;;-1.98;88.16;97682.90;1761481;80;20964;-41
2022/12/12 00:18:53;;;;;;;54.67;26.50;;;;;;;-1.98;87.74;97679.48;1761477;81;20987;-42
2022/12/12 00:21:23;;;;;;;48.03;24.70;;;;;;;-1.97;87.72;97677.30;1761718;80;20955;-42
2022/12/12 00:23:49;;;;;;;65.70;28.90;;;;;;;-1.99;87.88;97677.33;1760608;81;20983;-43
2022/12/12 00:26:20;;;;;;;48.95;25.68;;;;;;;-2.05;88.17;97673.67;1761478;81;20995;-43
2022/12/12 00:28:46;;;;;;;38.58;19.23;;;;;;;-2.13;88.30;97679.48;1761469;81;21536;-44
2022/12/12 00:31:12;;;;;;;38.53;20.88;;;;;;;-2.07;88.44;97666.86;1761546;81;21472;-42
2022/12/12 00:33:38;;;;;;;36.30;18.87;;;;;;;-2.02;88.18;97673.59;1761424;81;21449;-41
2022/12/12 00:36:05;;;;;;;38.67;20.27;;;;;;;-1.95;88.17;97668.64;1761461;81;20987;-42
2022/12/12 00:38:31;;;;;;;32.57;18.97;;;;;;;-1.91;88.68;97669.81;1761696;81;20984;-42
2022/12/12 00:40:58;;;;;;;32.95;18.27;;;;;;;-1.85;88.29;97667.06;1761431;80;20991;-41
2022/12/12 00:43:25;;;;;;;;;;;;;;;-1.86;88.42;97669.23;1764084;81;21071;-43
2022/12/12 00:45:52;;;;;;;36.03;19.57;;;;;;;-1.83;88.25;97672.55;1761706;81;20101;-43
2022/12/12 00:48:19;;;;;;;34.90;18.57;;;;;;;-1.72;88.24;97675.25;1754675;80;21019;-43
2022/12/12 00:50:45;;;;;;;29.87;18.90;;;;;;;-1.67;88.24;97672.92;1748274;81;21511;-42
2022/12/12 00:53:12;;;;;;;30.68;17.20;;;;;;;-1.63;88.01;97669.80;1748122;81;21027;-41
2022/12/12 00:55:38;;;;;;;32.78;18.50;;;;;;;-1.61;87.85;97666.27;1748346;81;21035;-41
2022/12/12 00:58:04;;;;;;;34.43;18.60;;;;;;;-1.60;87.79;97664.52;1748101;81;21027;-42
2022/12/12 01:00:31;;;;;;;29.10;16.40;;;;;;;-1.64;87.95;97661.20;1748108;81;21031;-42
2022/12/12 01:02:58;;;;;;;28.98;15.83;;;;;;;-1.64;88.09;97661.20;1748310;81;21587;-43
2022/12/12 01:05:25;;;;;;;32.13;16.62;;;;;;;-1.64;87.90;97659.91;1748156;81;20983;-42
2022/12/12 01:07:51;;;;;;;24.98;14.20;;;;;;;-1.60;88.03;97655.08;1748242;81;20980;-42
2022/12/12 01:10:16;;;;;;;31.65;14.93;;;;;;;-1.69;88.44;97659.67;1748065;82;21128;-43
2022/12/12 01:12:42;;;;;;;26.35;13.10;;;;;;;-1.70;88.97;97659.29;1748087;81;21043;-41
2022/12/12 01:15:10;;;;;;;26.20;12.98;;;;;;;-1.69;88.63;97666.11;1748084;81;20988;-42
2022/12/12 01:17:37;;;;;;;26.42;13.75;;;;;;;-1.78;89.02;97659.54;1748063;81;20964;-42
2022/12/12 01:20:08;;;;;;;23.42;12.78;;;;;;;-1.70;89.13;97660.13;1748325;81;20956;-43
2022/12/12 01:22:33;;;;;;;24.12;13.35;;;;;;;-1.68;89.08;97659.63;1747050;81;21362;-43
2022/12/12 01:24:59;;;;;;;22.32;13.05;;;;;;;-1.90;88.66;97654.77;1748027;81;21463;-43
2022/12/12 01:27:26;;;;;;;29.12;12.23;;;;;;;-1.81;89.18;97650.61;1748066;81;21027;-42
2022/12/12 01:29:54;;;;;;;26.20;12.85;;;;;;;-1.87;89.65;97652.08;1748304;81;21501;-41
2022/12/12 01:32:21;;;;;;;27.73;13.53;;;;;;;-1.82;89.67;97651.48;1748164;81;20964;-42
2022/12/12 01:34:47;;;;;;;21.95;12.68;;;;;;;-1.76;89.44;97651.31;1748362;81;20952;-42
2022/12/12 01:37:12;;;;;;;23.98;12.53;;;;;;;-1.74;89.27;97650.81;1748062;81;21492;-43
2022/12/12 01:39:38;;;;;;;22.07;11.97;;;;;;;-1.76;89.20;97649.57;1748157;81;21034;-42
2022/12/12 01:42:14;;;;;;;27.70;12.93;;;;;;;-1.67;89.26;97647.15;1748089;81;20987;-42
2022/12/12 01:44:50;;;;;;;21.85;11.45;;;;;;;-1.74;89.65;97649.52;1748108;81;20987;-41
2022/12/12 01:47:19;;;;;;;18.42;11.18;;;;;;;-1.69;89.84;97652.80;1748054;81;21022;-43
2022/12/12 01:49:58;;;;;;;29.85;12.98;;;;;;;-1.70;89.72;97656.26;1761027;81;21011;-43
2022/12/12 01:52:30;;;;;;;24.63;12.95;;;;;;;-1.68;89.88;97656.22;1761407;81;21030;-42
2022/12/12 01:54:59;;;;;;;20.43;12.00;;;;;;;-1.65;89.72;97655.67;1761460;80;20991;-43
2022/12/12 01:57:29;;;;;;;25.15;12.70;;;;;;;-1.56;89.42;97655.37;1761439;81;21034;-42
2022/12/12 01:59:57;;;;;;;23.55;13.03;;;;;;;-1.50;89.30;97657.35;1761401;81;20988;-43
2022/12/12 02:02:22;;;;;;;;;;;;;;;-1.43;89.09;97660.96;1763997;81;20951;-43
2022/12/12 02:04:48;;;;;;;26.27;12.37;;;;;;;-1.51;89.46;97660.39;1761521;81;20436;-43
2022/12/12 02:07:16;;;;;;;28.52;13.70;;;;;;;-1.47;89.24;97656.80;1761374;80;21043;-42
2022/12/12 02:09:43;;;;;;;20.80;11.25;;;;;;;-1.51;89.54;97650.08;1761412;81;20991;-42
2022/12/12 02:12:14;;;;;;;21.80;12.13;;;;;;;-1.61;89.49;97656.41;1744464;81;20963;-42
2022/12/12 02:14:44;;;;;;;23.47;11.57;;;;;;;-1.48;89.78;97656.85;1761349;81;21026;-44
2022/12/12 02:17:40;;;;;;;21.50;11.25;;;;;;;-1.49;89.37;97656.02;1761458;81;21035;-42
2022/12/12 02:20:33;;;;;;;18.23;10.78;;;;;;;-1.51;89.32;97660.39;1761272;81;21010;-42
2022/12/12 02:23:38;;;;;;;22.20;11.93;;;;;;;-1.55;89.39;97653.20;1761056;81;21011;-43
2022/12/12 02:26:58;;;;;;;24.75;12.82;;;;;;;-1.56;90.09;97647.63;1761372;81;21540;-42
2022/12/12 02:29:49;;;;;;;20.02;12.37;;;;;;;-1.52;89.82;97653.98;1761363;81;21026;-41
2022/12/12 02:32:41;;;;;;;19.50;11.90;;;;;;;-1.42;89.72;97661.80;1761353;81;20979;-42
2022/12/12 02:35:50;;;;;;;21.00;12.35;;;;;;;-1.40;89.86;97660.87;1715999;83;21501;-42
2022/12/12 02:38:36;;;;;;;23.35;10.80;;;;;;;-1.52;89.91;97664.30;1715632;83;21575;-43
2022/12/12 02:43:29;;;;;;;21.00;12.35;;;;;;;-1.41;89.55;97657.88;1800673;79;23052;-42
2022/12/12 02:45:59;;;;;;;26.75;13.55;;;;;;;-1.43;89.97;97650.64;1761504;81;21059;-39
2022/12/12 02:48:36;;;;;;;22.13;12.28;;;;;;;-1.29;89.90;97649.33;1742595;81;21512;-41
2022/12/12 02:51:06;;;;;;;21.62;12.90;;;;;;;-1.24;89.69;97650.02;1761753;81;21007;-40
2022/12/12 02:53:31;;;;;;;24.25;13.70;;;;;;;-1.21;89.17;97650.76;1761790;81;21512;-43
2022/12/12 02:56:08;;;;;;;24.40;14.75;;;;;;;-1.27;88.98;97652.27;1761798;81;20999;-40
2022/12/12 02:58:37;;;;;;;22.02;13.15;;;;;;;-1.24;89.01;97649.56;1761790;81;21003;-42
2022/12/12 03:01:23;;;;;;;30.35;14.78;;;;;;;-1.23;88.95;97647.84;1761810;81;20995;-42
2022/12/12 03:10:20;;;;;;;27.25;13.95;;;;;;;-1.27;89.91;97651.44;1761414;80;20982;-39
2022/12/12 03:13:18;;;;;;;23.70;14.03;;;;;;;-1.28;89.72;97644.13;1761848;80;20986;-43
2022/12/12 03:16:08;;;;;;;28.90;12.90;;;;;;;-1.23;89.73;97646.10;1761861;81;21590;-39
2022/12/12 03:18:45;;;;;;;24.50;13.15;;;;;;;-1.19;89.64;97650.25;1761649;80;21515;-43
2022/12/12 03:21:38;;;;;;;28.40;13.32;;;;;;;-1.13;89.26;97647.08;1761805;80;20995;-44
2022/12/12 03:24:27;;;;;;;21.97;12.07;;;;;;;-1.28;89.37;97642.00;1761745;81;20987;-40
2022/12/12 03:27:10;;;;;;;22.95;12.37;;;;;;;-1.27;89.94;97639.38;1761615;80;20960;-41
2022/12/12 03:30:03;;;;;;;24.05;13.80;;;;;;;-1.33;90.30;97644.72;1761788;80;21031;-40
2022/12/12 03:32:37;;;;;;;21.35;12.35;;;;;;;-1.30;90.20;97645.92;1761732;81;21429;-40
2022/12/12 03:35:14;;;;;;;22.22;12.30;;;;;;;-1.24;90.18;97641.83;1761652;80;20987;-42
2022/12/12 03:37:44;;;;;;;;;;;;;;;-1.28;90.06;97639.42;1764391;81;20991;-41
2022/12/12 03:40:15;;;;;;;20.25;12.35;;;;;;;-1.32;90.51;97643.84;1761343;80;20180;-39
2022/12/12 03:42:55;;;;;;;23.05;13.10;;;;;;;-1.43;90.80;97642.08;1753307;80;21532;-41
2022/12/12 03:45:47;;;;;;;20.75;11.88;;;;;;;-1.37;90.99;97648.30;1748841;81;20987;-40
2022/12/12 03:48:29;;;;;;;24.63;13.18;;;;;;;-1.36;90.79;97643.56;1739092;82;21506;-40
2022/12/12 03:51:14;;;;;;;23.45;13.18;;;;;;;-1.31;91.04;97644.67;1739173;82;21446;-40
2022/12/12 03:53:57;;;;;;;24.57;12.93;;;;;;;-1.33;90.84;97643.43;1738435;82;20994;-41
2022/12/12 03:56:31;;;;;;;26.17;13.32;;;;;;;-1.33;90.83;97633.12;1738628;82;21538;-41
2022/12/12 03:59:07;;;;;;;23.75;12.90;;;;;;;-1.28;90.98;97640.25;1738609;82;20998;-42
2022/12/12 04:01:44;;;;;;;23.87;12.80;;;;;;;-1.30;90.70;97642.05;1738720;82;20978;-41
2022/12/12 04:04:14;;;;;;;21.15;12.80;;;;;;;-1.24;90.78;97638.41;1738791;82;21005;-40
2022/12/12 04:07:00;;;;;;;18.90;11.43;;;;;;;-1.26;90.98;97633.77;1738655;82;21479;-41
2022/12/12 04:15:29;;;;;;;21.00;12.93;;;;;;;-1.12;90.17;97633.30;1738617;82;21057;-42
2022/12/12 04:18:19;;;;;;;26.35;13.75;;;;;;;-1.18;90.42;97631.77;1738614;82;20993;-42
2022/12/12 04:24:12;;;;;;;20.27;12.68;;;;;;;-1.06;90.50;97629.20;1738592;82;21495;-41
2022/12/12 04:26:47;;;;;;;21.93;12.25;;;;;;;-1.09;90.23;97628.88;1748728;81;20988;-42
2022/12/12 04:29:30;;;;;;;19.80;11.75;;;;;;;-1.08;90.29;97636.98;1748063;82;21035;-41
2022/12/12 04:32:16;;;;;;;19.52;11.60;;;;;;;-1.11;90.14;97632.38;1748013;81;20978;-42
2022/12/12 04:35:07;;;;;;;26.40;13.10;;;;;;;-1.15;90.39;97629.06;1748020;81;20995;-40
2022/12/12 04:37:43;;;;;;;18.90;11.48;;;;;;;-1.29;91.07;97630.85;1748109;81;21003;-41
2022/12/12 04:40:13;;;;;;;19.77;11.97;;;;;;;-1.22;91.15;97628.88;1747150;81;21446;-40
2022/12/12 04:42:48;;;;;;;22.93;13.05;;;;;;;-1.17;90.97;97630.86;1754965;80;21059;-40
2022/12/12 04:45:19;;;;;;;22.13;13.48;;;;;;;-1.15;90.94;97631.64;1761144;81;20991;-42
2022/12/12 04:47:49;;;;;;;23.83;14.90;;;;;;;-1.22;90.95;97627.59;1761644;81;21444;-41
2022/12/12 04:50:16;;;;;;;21.35;13.53;;;;;;;-1.26;91.36;97629.44;1761546;81;21484;-41
2022/12/12 04:52:44;;;;;;;23.98;13.95;;;;;;;-1.13;91.23;97630.31;1761540;80;20987;-42
2022/12/12 04:55:23;;;;;;;19.90;12.37;;;;;;;-1.17;90.99;97624.41;1761372;81;20979;-41
2022/12/12 04:57:53;;;;;;;24.27;13.50;;;;;;;-1.16;90.62;97634.68;1761456;81;21019;-41
2022/12/12 05:00:21;;;;;;;24.02;12.37;;;;;;;-1.21;90.61;97632.70;1761411;80;20983;-41
2022/12/12 05:02:59;;;;;;;23.12;12.07;;;;;;;-1.26;90.77;97632.02;1761367;81;21018;-42
2022/12/12 05:05:33;;;;;;;23.95;11.88;;;;;;;-1.25;90.94;97634.17;1761294;81;21491;-40
2022/12/12 05:08:10;;;;;;;63.40;35.35;;;;;;;-1.19;90.82;97632.66;1761414;81;21595;-40
2022/12/12 05:10:43;;;;;;;37.65;21.05;;;;;;;-1.22;90.97;97632.75;1761208;81;21473;-40
2022/12/12 05:13:18;;;;;;;48.20;25.45;;;;;;;-1.18;90.86;97633.90;1761397;81;21003;-41
2022/12/12 05:15:46;;;;;;;40.08;22.15;;;;;;;-1.19;90.60;97630.08;1761384;81;20991;-42
2022/12/12 05:18:12;;;;;;;21.90;14.47;;;;;;;-1.22;90.64;97628.45;1761457;81;20967;-40
2022/12/12 05:20:38;;;;;;;26.87;16.73;;;;;;;-1.23;90.64;97629.34;1761382;81;21022;-41
2022/12/12 05:23:04;;;;;;;24.18;15.23;;;;;;;-1.24;90.59;97626.35;1761353;81;20982;-41
2022/12/12 05:25:30;;;;;;;22.10;12.67;;;;;;;-1.26;90.80;97623.45;1761617;81;21349;-41
2022/12/12 05:27:56;;;;;;;25.45;14.98;;;;;;;-1.25;90.79;97618.70;1761385;80;21536;-42
2022/12/12 05:30:22;;;;;;;19.62;11.53;;;;;;;-1.24;90.91;97617.33;1761418;81;21520;-40
2022/12/12 05:32:49;;;;;;;30.32;17.55;;;;;;;-1.30;90.67;97623.16;1761697;80;21006;-40
2022/12/12 05:35:15;;;;;;;85.30;32.93;;;;;;;-1.26;90.82;97626.86;1761662;81;20984;-40
2022/12/12 05:37:41;;;;;;;52.45;24.67;;;;;;;-1.25;90.71;97628.55;1761417;81;20982;-40
2022/12/12 05:40:10;;;;;;;39.00;19.50;;;;;;;-1.25;90.90;97632.42;1761347;81;20982;-39
2022/12/12 05:42:36;;;;;;;48.52;26.35;;;;;;;-1.27;90.58;97622.61;1761203;81;21487;-41
2022/12/12 05:45:04;;;;;;;49.85;27.80;;;;;;;-1.28;90.51;97626.53;1761284;80;20983;-41
2022/12/12 05:47:30;;;;;;;51.95;26.77;;;;;;;-1.25;90.87;97629.02;1761511;81;21031;-40
2022/12/12 05:49:55;;;;;;;50.28;23.50;;;;;;;-1.33;90.99;97619.39;1761471;81;20987;-41
2022/12/12 05:52:21;;;;;;;52.60;28.87;;;;;;;-1.38;91.31;97626.01;1761402;81;20987;-40
2022/12/12 05:54:47;;;;;;;32.90;19.70;;;;;;;-1.30;91.10;97630.45;1760374;81;21531;-42
2022/12/12 05:57:13;;;;;;;31.73;18.37;;;;;;;-1.31;90.61;97625.33;1759846;81;21011;-41
2022/12/12 05:59:39;;;;;;;55.95;28.60;;;;;;;-1.38;90.84;97623.44;1760207;81;21539;-42
2022/12/12 06:02:05;;;;;;;30.40;17.37;;;;;;;-1.35;90.87;97619.44;1760247;81;21039;-41
2022/12/12 06:04:30;;;;;;;62.08;31.25;;;;;;;-1.29;91.17;97620.53;1760130;81;21027;-40
2022/12/12 06:06:56;;;;;;;55.52;28.20;;;;;;;-1.39;91.29;97624.31;1760272;81;21070;-42
2022/12/12 06:09:22;;;;;;;23.52;14.45;;;;;;;-1.36;91.59;97625.50;1760135;81;21022;-41
2022/12/12 06:11:48;;;;;;;21.12;13.72;;;;;;;-1.26;91.10;97622.98;1760289;81;21347;-42
2022/12/12 06:14:13;;;;;;;19.25;12.15;;;;;;;-1.26;91.12;97620.41;1760288;81;20995;-41
2022/12/12 06:16:40;;;;;;;20.20;12.13;;;;;;;-1.25;90.66;97627.27;1760282;81;21027;-41
2022/12/12 06:19:05;;;;;;;20.68;11.93;;;;;;;-1.24;90.63;97623.77;1760529;81;20975;-41
2022/12/12 06:21:31;;;;;;;16.87;10.30;;;;;;;-1.33;90.95;97622.80;1761287;81;21034;-41
2022/12/12 06:23:57;;;;;;;19.48;11.40;;;;;;;-1.27;90.81;97627.77;1761364;81;21041;-40
2022/12/12 06:26:23;;;;;;;18.27;10.68;;;;;;;-1.36;90.71;97630.66;1761354;81;21484;-40
2022/12/12 06:28:48;;;;;;;23.80;12.15;;;;;;;-1.32;90.81;97634.81;1761343;81;21448;-40
2022/12/12 06:31:15;;;;;;;22.50;12.98;;;;;;;-1.34;90.75;97625.00;1761419;81;20991;-40
2022/12/12 06:33:42;;;;;;;18.50;11.63;;;;;;;-1.33;91.09;97633.12;1761388;81;20999;-39
2022/12/12 06:36:12;;;;;;;21.77;13.30;;;;;;;-1.28;90.81;97632.52;1761488;80;20983;-40
2022/12/12 06:38:39;;;;;;;19.67;10.65;;;;;;;-1.29;90.78;97635.14;1761355;81;21030;-41
2022/12/12 06:41:12;;;;;;;18.85;11.55;;;;;;;-1.38;91.05;97632.45;1761386;81;20982;-41
2022/12/12 06:43:38;;;;;;;21.55;13.28;;;;;;;-1.36;90.98;97634.53;1761181;81;21066;-40
2022/12/12 06:46:09;;;;;;;22.05;13.30;;;;;;;-1.30;91.09;97630.90;1761658;81;20991;-41
2022/12/12 06:48:36;;;;;;;20.77;10.82;;;;;;;-1.29;90.94;97637.72;1769725;81;20972;-41
2022/12/12 06:51:10;;;;;;;16.27;10.95;;;;;;;-1.25;90.90;97638.03;1761606;81;21551;-41
2022/12/12 06:53:36;;;;;;;16.00;10.53;;;;;;;-1.25;90.72;97635.46;1761283;81;21034;-41
2022/12/12 06:56:11;;;;;;;18.60;11.60;;;;;;;-1.31;91.06;97631.78;1761287;81;21018;-42
2022/12/12 06:58:36;;;;;;;21.33;13.00;;;;;;;-1.29;91.27;97632.14;1760865;81;21476;-40
2022/12/12 07:01:03;;;;;;;20.82;13.30;;;;;;;-1.29;91.39;97632.56;1761389;81;20991;-39
2022/12/12 07:03:29;;;;;;;23.12;12.23;;;;;;;-1.20;91.39;97639.56;1761480;81;20987;-40
2022/12/12 07:05:55;;;;;;;21.20;11.25;;;;;;;-1.18;91.41;97634.36;1761381;81;21027;-40
2022/12/12 07:08:21;;;;;;;17.02;10.25;;;;;;;-1.22;91.61;97643.06;1761257;81;20999;-40
2022/12/12 07:10:47;;;;;;;19.20;12.25;;;;;;;-1.19;91.22;97642.97;1761324;81;20967;-42
2022/12/12 07:13:13;;;;;;;16.73;11.22;;;;;;;-1.14;91.37;97642.83;1761408;81;20995;-41
2022/12/12 07:15:49;;;;;;;17.77;10.53;;;;;;;-1.12;91.20;97650.89;1761308;81;20998;-40
2022/12/12 07:18:16;;;;;;;17.62;11.83;;;;;;;-1.11;91.30;97646.57;1761300;81;20967;-40
2022/12/12 07:20:45;;;;;;;14.93;10.55;;;;;;;-1.08;91.39;97652.47;1761346;81;20968;-42
2022/12/12 07:23:11;;;;;;;18.00;11.45;;;;;;;-1.00;91.40;97650.91;1761216;81;20959;-41
2022/12/12 07:25:39;;;;;;;18.45;10.75;;;;;;;-1.01;91.24;97650.07;1761264;80;21003;-41
2022/12/12 07:28:06;;;;;;;19.87;11.95;;;;;;;-1.03;91.12;97652.32;1761366;81;21022;-41
2022/12/12 07:30:33;;;;;;;19.73;11.90;;;;;;;-0.99;91.31;97653.89;1761561;81;20995;-41
2022/12/12 07:32:58;;;;;;;17.23;10.40;;;;;;;-0.98;91.04;97650.43;1761527;81;20995;-40
2022/12/12 07:35:25;;;;;;;17.40;10.80;;;;;;;-0.94;90.96;97652.00;1761476;81;21524;-41
2022/12/12 07:37:51;;;;;;;18.05;11.48;;;;;;;-0.88;91.06;97653.06;1761474;81;20967;-42
2022/12/12 07:40:17;;;;;;;16.30;10.68;;;;;;;-0.85;90.96;97650.38;1761508;81;21465;-42
2022/12/12 07:42:43;;;;;;;18.73;10.38;;;;;;;-0.80;90.60;97652.78;1761325;80;21000;-40
2022/12/12 07:45:09;;;;;;;21.25;11.70;;;;;;;-0.85;90.97;97648.25;1761475;81;21477;-42
2022/12/12 07:47:35;;;;;;;22.45;10.90;;;;;;;-0.82;90.96;97651.57;1761377;80;21003;-40
2022/12/12 07:50:00;;;;;;;19.40;11.53;;;;;;;-0.84;90.98;97657.20;1761374;81;20991;-41
2022/12/12 07:52:26;;;;;;;15.10;10.32;;;;;;;-0.78;90.91;97660.87;1761444;81;20987;-40
2022/12/12 07:54:52;;;;;;;19.75;11.35;;;;;;;-0.73;91.11;97656.83;1761463;81;20955;-43
2022/12/12 07:57:18;;;;;;;18.05;10.40;;;;;;;-0.81;91.21;97659.69;1761411;81;20995;-41
2022/12/12 07:59:43;;;;;;;20.48;10.60;;;;;;;-0.77;91.53;97657.38;1761491;81;20991;-40
2022/12/12 08:02:10;;;;;;;15.75;10.63;;;;;;;-0.70;91.54;97658.47;1761410;81;20991;-41
2022/12/12 08:04:36;;;;;;;15.70;11.08;;;;;;;-0.59;91.23;97664.08;1761587;81;21457;-42
2022/12/12 08:07:02;;;;;;;15.78;10.05;;;;;;;-0.56;91.21;97663.11;1761467;81;20987;-41
2022/12/12 08:09:28;;;;;;;15.63;10.68;;;;;;;-0.55;90.99;97663.52;1761420;81;21026;-41
2022/12/12 08:11:57;;;;;;;16.48;10.00;;;;;;;-0.52;90.92;97668.13;1761461;81;20995;-43
2022/12/12 08:14:24;;;;;;;15.93;9.90;;;;;;;-0.47;90.60;97672.67;1761411;81;21044;-42
2022/12/12 08:16:50;;;;;;;;;;;;;;;-0.51;90.56;97664.66;1764055;80;20995;-40
2022/12/12 08:19:16;;;;;;;18.35;10.80;;;;;;;-0.51;90.74;97671.54;1761346;80;20111;-41
2022/12/12 08:21:43;;;;;;;14.07;9.25;;;;;;;-0.46;90.88;97670.93;1761631;80;20987;-40
2022/12/12 08:24:12;;;;;;;38.20;15.50;;;;;;;-0.39;90.65;97674.51;1761569;80;20990;-40
2022/12/12 08:26:38;;;;;;;46.40;17.75;;;;;;;-0.41;90.53;97671.15;1761425;81;20999;-40
2022/12/12 08:29:05;;;;;;;35.33;16.17;;;;;;;-0.37;90.66;97678.79;1761427;81;20971;-41
2022/12/12 08:31:31;;;;;;;26.33;13.75;;;;;;;-0.31;90.51;97674.25;1761500;81;21042;-42
2022/12/12 08:33:59;;;;;;;18.77;10.88;;;;;;;-0.32;90.15;97674.30;1761382;81;21006;-41
2022/12/12 08:36:29;;;;;;;35.58;16.00;;;;;;;-0.24;90.10;97672.26;1761467;81;20991;-41
2022/12/12 08:38:56;;;;;;;24.12;12.30;;;;;;;-0.24;90.25;97678.29;1761422;81;20999;-42
2022/12/12 08:41:23;;;;;;;21.30;12.93;;;;;;;-0.25;90.11;97683.51;1761517;81;20975;-41
2022/12/12 08:43:50;;;;;;;17.20;10.40;;;;;;;-0.20;90.18;97681.14;1761442;80;21019;-42
2022/12/12 08:46:18;;;;;;;18.77;12.65;;;;;;;-0.22;90.04;97689.83;1761582;81;20999;-40
2022/12/12 08:48:45;;;;;;;38.02;14.93;;;;;;;-0.17;90.12;97682.75;1761403;81;20998;-42
2022/12/12 08:51:11;;;;;;;29.30;13.98;;;;;;;-0.10;89.99;97680.79;1761593;80;21479;-41
2022/12/12 08:53:37;;;;;;;33.60;16.57;;;;;;;-0.12;89.81;97682.59;1761404;81;20955;-41
2022/12/12 08:56:04;;;;;;;19.32;11.40;;;;;;;-0.15;89.70;97688.70;1761401;81;20968;-41
2022/12/12 08:58:30;;;;;;;45.20;26.20;;;;;;;-0.20;89.89;97689.31;1761417;81;20994;-42
2022/12/12 09:00:56;;;;;;;87.12;35.30;;;;;;;-0.14;89.90;97687.81;1761322;81;20956;-42
2022/12/12 09:03:22;;;;;;;47.83;21.17;;;;;;;-0.03;89.89;97688.70;1761796;81;20987;-42
2022/12/12 09:05:48;;;;;;;72.67;26.95;;;;;;;-0.02;89.57;97692.52;1761368;81;21027;-41
2022/12/12 09:08:14;;;;;;;65.25;24.30;;;;;;;-0.04;89.45;97686.58;1761433;81;20960;-42
2022/12/12 09:10:41;;;;;;;38.02;15.25;;;;;;;0.03;89.38;97679.87;1761393;81;20998;-41
2022/12/12 09:13:08;;;;;;;28.95;11.05;;;;;;;-0.09;89.14;97687.20;1761496;81;21006;-43
2022/12/12 09:15:35;;;;;;;48.45;18.20;;;;;;;-0.04;89.05;97687.00;1761312;80;20968;-42
2022/12/12 09:18:02;;;;;;;22.13;10.35;;;;;;;-0.03;89.29;97689.53;1761362;81;21002;-41
2022/12/12 09:20:27;;;;;;;33.28;13.95;;;;;;;0.13;88.97;97691.55;1761406;81;20972;-41
2022/12/12 09:22:53;;;;;;;33.50;13.03;;;;;;;0.05;89.15;97686.65;1761328;81;21010;-42
2022/12/12 09:25:20;;;;;;;28.50;14.18;;;;;;;0.05;88.96;97685.36;1761366;81;21038;-42
2022/12/12 09:27:47;;;;;;;21.85;11.22;;;;;;;0.09;89.02;97683.50;1761508;81;20971;-43
2022/12/12 09:30:13;;;;;;;14.80;8.65;;;;;;;0.20;88.85;97681.36;1761299;80;20987;-43
2022/12/12 09:32:40;;;;;;;17.30;8.30;;;;;;;0.08;88.44;97685.70;1761559;81;20995;-43
2022/12/12 09:35:07;;;;;;;20.15;11.57;;;;;;;0.15;88.68;97689.73;1761490;81;21038;-43
2022/12/12 09:37:33;;;;;;;17.27;8.10;;;;;;;0.09;88.90;97688.66;1761593;81;21038;-43
2022/12/12 09:39:58;;;;;;;18.55;10.55;;;;;;;0.12;88.55;97682.92;1761533;81;21041;-43
2022/12/12 09:42:31;;;;;;;27.80;16.90;;;;;;;0.08;88.82;97681.83;1761246;81;21437;-43
2022/12/12 09:45:02;;;;;;;25.40;13.00;;;;;;;0.13;88.95;97688.50;1739832;81;21066;-44
2022/12/12 09:47:36;;;;;;;28.90;17.37;;;;;;;0.16;88.48;97687.10;1758237;81;20996;-42
2022/12/12 09:50:13;;;;;;;20.72;12.15;;;;;;;0.18;88.70;97680.12;1758140;81;20990;-43
2022/12/12 09:52:40;;;;;;;16.62;9.15;;;;;;;0.17;88.29;97685.34;1758251;81;21051;-43
2022/12/12 09:55:45;;;;;;;29.55;15.15;;;;;;;0.16;88.38;97687.10;1758319;81;21509;-42
2022/12/12 09:58:30;;;;;;;15.28;8.68;;;;;;;0.14;88.46;97688.88;1758144;81;20973;-43
2022/12/12 10:01:10;;;;;;;18.60;10.00;;;;;;;0.30;88.37;97685.70;1758149;81;20991;-43
2022/12/12 10:03:59;;;;;;;19.20;12.50;;;;;;;0.28;88.34;97683.17;1758115;81;21476;-42
2022/12/12 10:06:30;;;;;;;20.40;10.58;;;;;;;0.24;88.14;97685.50;1758124;81;21026;-42
2022/12/12 10:09:34;;;;;;;16.10;8.90;;;;;;;0.30;88.05;97685.24;1758156;81;20995;-41
2022/12/12 10:12:03;;;;;;;16.87;8.58;;;;;;;0.26;88.17;97685.44;1737098;81;21566;-41
2022/12/12 10:14:37;;;;;;;16.45;8.98;;;;;;;0.31;88.20;97683.06;1758145;81;21035;-42
2022/12/12 10:17:11;;;;;;;15.65;9.03;;;;;;;0.30;88.10;97684.41;1758204;80;21054;-41
2022/12/12 10:19:45;;;;;;;15.45;9.08;;;;;;;0.34;88.28;97692.43;1757600;81;20964;-42
2022/12/12 10:22:32;;;;;;;13.35;8.58;;;;;;;0.35;88.47;97687.66;1759068;80;21027;-42
2022/12/12 10:25:09;;;;;;;36.10;16.93;;;;;;;0.46;88.09;97683.36;1758156;81;21117;-41
2022/12/12 10:27:35;;;;;;;20.88;10.65;;;;;;;0.35;87.96;97680.73;1758374;80;20987;-43
2022/12/12 10:30:09;;;;;;;27.98;11.95;;;;;;;0.48;88.22;97679.79;1757683;81;21574;-43
2022/12/12 10:32:54;;;;;;;17.85;7.97;;;;;;;0.53;88.17;97688.67;1758267;81;21011;-42
2022/12/12 10:35:38;;;;;;;19.55;9.88;;;;;;;0.54;87.90;97694.22;1757000;81;20967;-43
2022/12/12 10:38:50;;;;;;;18.73;9.03;;;;;;;0.60;87.62;97691.41;1749894;81;20967;-43
2022/12/12 10:41:21;;;;;;;18.32;8.53;;;;;;;0.67;87.49;97686.80;1752907;81;21014;-43
2022/12/12 10:44:22;;;;;;;14.10;8.58;;;;;;;0.84;87.25;97683.53;1749513;80;21055;-44
2022/12/12 10:47:08;;;;;;;11.95;7.65;;;;;;;0.94;87.05;97686.94;1747270;81;20964;-43
2022/12/12 10:49:34;;;;;;;12.25;8.10;;;;;;;0.93;86.53;97682.69;1747430;81;21035;-43
2022/12/12 10:52:06;;;;;;;13.68;8.85;;;;;;;1.05;86.22;97681.31;1746326;81;21070;-42
2022/12/12 10:54:40;;;;;;;13.15;8.15;;;;;;;1.12;86.03;97684.48;1745503;81;21032;-47
2022/12/12 10:57:24;;;;;;;16.15;8.25;;;;;;;1.21;85.94;97678.08;1746518;81;21091;-45
2022/12/12 10:59:57;;;;;;;16.12;7.75;;;;;;;1.13;85.46;97669.35;1744213;81;21050;-45
2022/12/12 11:02:40;;;;;;;12.70;7.67;;;;;;;1.24;85.08;97679.25;1759758;80;21096;-46
2022/12/12 11:05:23;;;;;;;17.27;8.78;;;;;;;1.20;84.83;97677.67;1720467;82;21013;-42
2022/12/12 11:08:20;;;;;;;16.80;9.45;;;;;;;1.21;84.70;97678.91;1744542;82;22055;-46
2022/12/12 11:11:22;;;;;;;12.43;7.22;;;;;;;1.28;84.67;97680.78;1740696;81;21521;-43
2022/12/12 11:13:59;;;;;;;13.28;6.92;;;;;;;1.27;84.57;97684.27;1725050;82;20996;-44
2022/12/12 11:16:29;;;;;;;8.30;6.47;;;;;;;1.18;84.23;97686.80;1743835;82;20968;-44
2022/12/12 11:19:04;;;;;;;10.30;6.70;;;;;;;1.13;84.49;97681.84;1739894;82;20968;-44
2022/12/12 11:21:34;;;;;;;20.85;9.38;;;;;;;1.02;84.60;97680.16;1745248;82;21007;-44
2022/12/12 11:24:14;;;;;;;13.45;7.85;;;;;;;1.04;84.83;97682.23;1745523;82;20979;-41
2022/12/12 11:27:00;;;;;;;13.98;8.03;;;;;;;1.05;84.88;97682.60;1740033;81;20960;-41
2022/12/12 11:29:45;;;;;;;18.90;8.45;;;;;;;0.94;85.04;97683.52;1723850;82;20979;-43
2022/12/12 11:32:31;;;;;;;14.00;8.03;;;;;;;0.87;85.14;97680.80;1745480;82;20948;-42
2022/12/12 11:35:01;;;;;;;14.10;6.97;;;;;;;0.87;85.21;97685.51;1746460;82;20983;-42
2022/12/12 11:37:41;;;;;;;15.58;7.45;;;;;;;0.91;85.19;97683.63;1740536;82;21026;-43
2022/12/12 11:40:18;;;;;;;12.43;7.55;;;;;;;0.91;85.15;97681.91;1745403;81;21011;-45
2022/12/12 11:42:44;;;;;;;12.03;6.80;;;;;;;0.93;85.06;97687.03;1733888;81;21457;-42
2022/12/12 11:45:18;;;;;;;14.65;7.25;;;;;;;0.93;84.97;97689.16;1743764;81;21047;-43
2022/12/12 11:47:47;;;;;;;11.55;6.97;;;;;;;0.91;85.24;97685.80;1750805;82;20995;-44
2022/12/12 11:50:26;;;;;;;17.55;7.95;;;;;;;1.01;85.19;97690.12;1734875;81;20978;-40
2022/12/12 11:52:57;;;;;;;22.13;8.50;;;;;;;1.03;85.16;97688.77;1742693;82;20959;-40
2022/12/12 11:56:03;;;;;;;15.45;9.35;;;;;;;0.94;84.76;97693.88;1729357;82;21007;-48
2022/12/12 11:58:45;;;;;;;18.62;9.03;;;;;;;0.95;85.08;97695.56;1751154;81;21011;-39
2022/12/12 12:01:25;;;;;;;16.32;9.05;;;;;;;0.86;85.09;97701.13;1754217;82;21459;-40
2022/12/12 12:04:17;;;;;;;13.98;6.83;;;;;;;0.80;84.85;97696.19;1749960;82;21695;-43